<?xml version="1.0" encoding="UTF-8" standalone="no" ?>
<gpx xmlns="http://www.topografix.com/GPX/1/1" xmlns:xsi="http://www.w3.org/2001/XMLSchema-instance" xsi:schemaLocation="http://www.topografix.com/GPX/1/1 http://www.topografix.com/GPX/1/1/gpx.xsd" version="1.1" creator="VisuGPX - https://www.visugpx.com">
  <metadata>
    <name>Points de vue sur Najac et la vallée de l'Aveyron</name>
    <desc><![CDATA[Circuit de découverte de la vallée de l'Aveyron au pied de Najac]]></desc>
  </metadata>
  <trk>
    <name><![CDATA[Points de vue sur Najac et la vallée de l'Aveyron_3]]></name>
    <trkseg>
      <trkpt lat="44.21775" lon="1.97089">
        <ele>297.1</ele>
        <time>2019-05-11T13:33:23Z</time>
      </trkpt>
      <trkpt lat="44.21763" lon="1.97134">
        <ele>304.4</ele>
        <time>2019-05-11T13:34:20Z</time>
      </trkpt>
      <trkpt lat="44.21763" lon="1.97141">
        <ele>309.2</ele>
        <time>2019-05-11T13:34:37Z</time>
      </trkpt>
      <trkpt lat="44.21762" lon="1.97148">
        <ele>311.5</ele>
        <time>2019-05-11T13:34:41Z</time>
      </trkpt>
      <trkpt lat="44.21764" lon="1.97161">
        <ele>316</ele>
        <time>2019-05-11T13:36:03Z</time>
      </trkpt>
      <trkpt lat="44.21766" lon="1.97168">
        <ele>314.9</ele>
        <time>2019-05-11T13:36:05Z</time>
      </trkpt>
      <trkpt lat="44.21768" lon="1.97175">
        <ele>313.6</ele>
        <time>2019-05-11T13:36:07Z</time>
      </trkpt>
      <trkpt lat="44.21765" lon="1.9718">
        <ele>312.7</ele>
        <time>2019-05-11T13:36:10Z</time>
      </trkpt>
      <trkpt lat="44.2177" lon="1.97212">
        <ele>315.1</ele>
        <time>2019-05-11T13:36:58Z</time>
      </trkpt>
      <trkpt lat="44.21772" lon="1.97223">
        <ele>319.9</ele>
        <time>2019-05-11T13:39:54Z</time>
      </trkpt>
      <trkpt lat="44.21773" lon="1.9723">
        <ele>320.1</ele>
        <time>2019-05-11T13:39:58Z</time>
      </trkpt>
      <trkpt lat="44.21773" lon="1.97248">
        <ele>326.3</ele>
        <time>2019-05-11T13:40:07Z</time>
      </trkpt>
      <trkpt lat="44.21775" lon="1.97255">
        <ele>327.1</ele>
        <time>2019-05-11T13:40:16Z</time>
      </trkpt>
      <trkpt lat="44.21776" lon="1.97272">
        <ele>323.2</ele>
        <time>2019-05-11T13:40:42Z</time>
      </trkpt>
      <trkpt lat="44.21777" lon="1.97279">
        <ele>324.7</ele>
        <time>2019-05-11T13:40:50Z</time>
      </trkpt>
      <trkpt lat="44.21778" lon="1.97285">
        <ele>324.3</ele>
        <time>2019-05-11T13:40:58Z</time>
      </trkpt>
      <trkpt lat="44.21778" lon="1.97293">
        <ele>325</ele>
        <time>2019-05-11T13:41:04Z</time>
      </trkpt>
      <trkpt lat="44.21777" lon="1.97299">
        <ele>326.6</ele>
        <time>2019-05-11T13:41:12Z</time>
      </trkpt>
      <trkpt lat="44.21778" lon="1.97306">
        <ele>326.2</ele>
        <time>2019-05-11T13:41:20Z</time>
      </trkpt>
      <trkpt lat="44.21779" lon="1.97313">
        <ele>325.1</ele>
        <time>2019-05-11T13:41:55Z</time>
      </trkpt>
      <trkpt lat="44.21781" lon="1.9732">
        <ele>324.8</ele>
        <time>2019-05-11T13:41:57Z</time>
      </trkpt>
      <trkpt lat="44.21783" lon="1.97328">
        <ele>324.8</ele>
        <time>2019-05-11T13:41:59Z</time>
      </trkpt>
      <trkpt lat="44.21786" lon="1.97334">
        <ele>324.7</ele>
        <time>2019-05-11T13:42:01Z</time>
      </trkpt>
      <trkpt lat="44.21794" lon="1.97347">
        <ele>327.8</ele>
        <time>2019-05-11T13:42:17Z</time>
      </trkpt>
      <trkpt lat="44.21794" lon="1.97354">
        <ele>326.8</ele>
        <time>2019-05-11T13:42:22Z</time>
      </trkpt>
      <trkpt lat="44.21796" lon="1.9736">
        <ele>321.1</ele>
        <time>2019-05-11T13:43:08Z</time>
      </trkpt>
      <trkpt lat="44.21798" lon="1.97366">
        <ele>321</ele>
        <time>2019-05-11T13:43:22Z</time>
      </trkpt>
      <trkpt lat="44.21797" lon="1.97372">
        <ele>321.3</ele>
        <time>2019-05-11T13:43:47Z</time>
      </trkpt>
      <trkpt lat="44.21801" lon="1.97376">
        <ele>320.8</ele>
        <time>2019-05-11T13:44:07Z</time>
      </trkpt>
      <trkpt lat="44.21803" lon="1.97383">
        <ele>322.2</ele>
        <time>2019-05-11T13:44:23Z</time>
      </trkpt>
      <trkpt lat="44.21802" lon="1.9739">
        <ele>325</ele>
        <time>2019-05-11T13:44:27Z</time>
      </trkpt>
      <trkpt lat="44.21803" lon="1.97398">
        <ele>325.8</ele>
        <time>2019-05-11T13:44:32Z</time>
      </trkpt>
      <trkpt lat="44.21806" lon="1.97404">
        <ele>326.4</ele>
        <time>2019-05-11T13:44:40Z</time>
      </trkpt>
      <trkpt lat="44.21807" lon="1.9741">
        <ele>326.4</ele>
        <time>2019-05-11T13:44:46Z</time>
      </trkpt>
      <trkpt lat="44.21808" lon="1.97417">
        <ele>326.5</ele>
        <time>2019-05-11T13:45:31Z</time>
      </trkpt>
      <trkpt lat="44.21812" lon="1.97421">
        <ele>325.8</ele>
        <time>2019-05-11T13:45:40Z</time>
      </trkpt>
      <trkpt lat="44.2184" lon="1.97454">
        <ele>324.8</ele>
        <time>2019-05-11T13:46:17Z</time>
      </trkpt>
      <trkpt lat="44.21843" lon="1.97459">
        <ele>325.6</ele>
        <time>2019-05-11T13:46:20Z</time>
      </trkpt>
      <trkpt lat="44.21847" lon="1.97468">
        <ele>325.2</ele>
        <time>2019-05-11T13:46:35Z</time>
      </trkpt>
      <trkpt lat="44.21849" lon="1.97476">
        <ele>325.6</ele>
        <time>2019-05-11T13:46:38Z</time>
      </trkpt>
      <trkpt lat="44.2186" lon="1.97479">
        <ele>328.6</ele>
        <time>2019-05-11T13:46:50Z</time>
      </trkpt>
      <trkpt lat="44.21869" lon="1.97493">
        <ele>327.6</ele>
        <time>2019-05-11T13:50:25Z</time>
      </trkpt>
      <trkpt lat="44.21876" lon="1.97504">
        <ele>323.7</ele>
        <time>2019-05-11T13:50:39Z</time>
      </trkpt>
      <trkpt lat="44.2188" lon="1.97507">
        <ele>323.9</ele>
        <time>2019-05-11T13:50:45Z</time>
      </trkpt>
      <trkpt lat="44.21876" lon="1.97504">
        <ele>322.2</ele>
        <time>2019-05-11T13:53:50Z</time>
      </trkpt>
      <trkpt lat="44.21872" lon="1.97504">
        <ele>324.3</ele>
        <time>2019-05-11T13:53:59Z</time>
      </trkpt>
      <trkpt lat="44.21871" lon="1.9751">
        <ele>323</ele>
        <time>2019-05-11T13:54:11Z</time>
      </trkpt>
      <trkpt lat="44.21877" lon="1.97525">
        <ele>317.9</ele>
        <time>2019-05-11T13:54:31Z</time>
      </trkpt>
      <trkpt lat="44.21879" lon="1.97531">
        <ele>318.3</ele>
        <time>2019-05-11T13:54:34Z</time>
      </trkpt>
      <trkpt lat="44.21879" lon="1.97539">
        <ele>318.6</ele>
        <time>2019-05-11T13:54:38Z</time>
      </trkpt>
      <trkpt lat="44.21879" lon="1.97546">
        <ele>318.8</ele>
        <time>2019-05-11T13:54:41Z</time>
      </trkpt>
      <trkpt lat="44.21879" lon="1.97552">
        <ele>320.4</ele>
        <time>2019-05-11T13:54:56Z</time>
      </trkpt>
      <trkpt lat="44.21882" lon="1.97615">
        <ele>315.6</ele>
        <time>2019-05-11T13:55:58Z</time>
      </trkpt>
      <trkpt lat="44.21898" lon="1.97624">
        <ele>314.3</ele>
        <time>2019-05-11T13:59:20Z</time>
      </trkpt>
      <trkpt lat="44.21906" lon="1.97623">
        <ele>312.6</ele>
        <time>2019-05-11T13:59:22Z</time>
      </trkpt>
      <trkpt lat="44.21911" lon="1.97625">
        <ele>307.3</ele>
        <time>2019-05-11T13:59:25Z</time>
      </trkpt>
      <trkpt lat="44.21912" lon="1.97636">
        <ele>302.1</ele>
        <time>2019-05-11T13:59:49Z</time>
      </trkpt>
      <trkpt lat="44.21913" lon="1.97642">
        <ele>302.8</ele>
        <time>2019-05-11T13:59:53Z</time>
      </trkpt>
      <trkpt lat="44.21921" lon="1.97666">
        <ele>302</ele>
        <time>2019-05-11T14:00:59Z</time>
      </trkpt>
      <trkpt lat="44.21921" lon="1.97672">
        <ele>303</ele>
        <time>2019-05-11T14:03:23Z</time>
      </trkpt>
      <trkpt lat="44.21928" lon="1.97677">
        <ele>301.7</ele>
        <time>2019-05-11T14:04:00Z</time>
      </trkpt>
      <trkpt lat="44.2193" lon="1.97683">
        <ele>298</ele>
        <time>2019-05-11T14:04:03Z</time>
      </trkpt>
      <trkpt lat="44.21926" lon="1.97687">
        <ele>299.5</ele>
        <time>2019-05-11T14:05:15Z</time>
      </trkpt>
      <trkpt lat="44.21922" lon="1.9769">
        <ele>300.6</ele>
        <time>2019-05-11T14:05:22Z</time>
      </trkpt>
      <trkpt lat="44.21939" lon="1.97741">
        <ele>314.1</ele>
        <time>2019-05-11T14:07:28Z</time>
      </trkpt>
      <trkpt lat="44.21941" lon="1.97748">
        <ele>316.8</ele>
        <time>2019-05-11T14:07:52Z</time>
      </trkpt>
      <trkpt lat="44.21945" lon="1.97754">
        <ele>316.2</ele>
        <time>2019-05-11T14:07:58Z</time>
      </trkpt>
      <trkpt lat="44.2195" lon="1.97765">
        <ele>309.1</ele>
        <time>2019-05-11T14:09:02Z</time>
      </trkpt>
      <trkpt lat="44.21949" lon="1.97772">
        <ele>309.8</ele>
        <time>2019-05-11T14:09:06Z</time>
      </trkpt>
      <trkpt lat="44.21953" lon="1.97784">
        <ele>316.1</ele>
        <time>2019-05-11T14:09:22Z</time>
      </trkpt>
      <trkpt lat="44.21965" lon="1.97798">
        <ele>315.6</ele>
        <time>2019-05-11T14:14:43Z</time>
      </trkpt>
      <trkpt lat="44.2197" lon="1.978">
        <ele>313.3</ele>
        <time>2019-05-11T14:14:49Z</time>
      </trkpt>
      <trkpt lat="44.21998" lon="1.97864">
        <ele>318</ele>
        <time>2019-05-11T14:16:09Z</time>
      </trkpt>
      <trkpt lat="44.21998" lon="1.97871">
        <ele>316.6</ele>
        <time>2019-05-11T14:16:15Z</time>
      </trkpt>
      <trkpt lat="44.22006" lon="1.9788">
        <ele>317.7</ele>
        <time>2019-05-11T14:17:17Z</time>
      </trkpt>
      <trkpt lat="44.22014" lon="1.97898">
        <ele>317.5</ele>
        <time>2019-05-11T14:17:19Z</time>
      </trkpt>
      <trkpt lat="44.22039" lon="1.97944">
        <ele>326.5</ele>
        <time>2019-05-11T14:17:43Z</time>
      </trkpt>
      <trkpt lat="44.22033" lon="1.97973">
        <ele>331.7</ele>
        <time>2019-05-11T14:18:04Z</time>
      </trkpt>
      <trkpt lat="44.22036" lon="1.97979">
        <ele>333</ele>
        <time>2019-05-11T14:18:12Z</time>
      </trkpt>
      <trkpt lat="44.22052" lon="1.97982">
        <ele>333</ele>
        <time>2019-05-11T14:18:19Z</time>
      </trkpt>
      <trkpt lat="44.22056" lon="1.97988">
        <ele>334</ele>
        <time>2019-05-11T14:18:23Z</time>
      </trkpt>
      <trkpt lat="44.22052" lon="1.97997">
        <ele>335.6</ele>
        <time>2019-05-11T14:18:26Z</time>
      </trkpt>
      <trkpt lat="44.22046" lon="1.98005">
        <ele>335.7</ele>
        <time>2019-05-11T14:18:28Z</time>
      </trkpt>
      <trkpt lat="44.22047" lon="1.98013">
        <ele>337.2</ele>
        <time>2019-05-11T14:18:31Z</time>
      </trkpt>
      <trkpt lat="44.22046" lon="1.98016">
        <ele>341.5</ele>
        <time>2019-05-11T14:18:44Z</time>
      </trkpt>
      <trkpt lat="44.22052" lon="1.98016">
        <ele>341.3</ele>
        <time>2019-05-11T14:18:48Z</time>
      </trkpt>
      <trkpt lat="44.22056" lon="1.98021">
        <ele>341.3</ele>
        <time>2019-05-11T14:18:52Z</time>
      </trkpt>
      <trkpt lat="44.2206" lon="1.98026">
        <ele>342.4</ele>
        <time>2019-05-11T14:18:56Z</time>
      </trkpt>
      <trkpt lat="44.22057" lon="1.9804">
        <ele>342.7</ele>
        <time>2019-05-11T14:19:21Z</time>
      </trkpt>
      <trkpt lat="44.22058" lon="1.98047">
        <ele>342.5</ele>
        <time>2019-05-11T14:19:25Z</time>
      </trkpt>
      <trkpt lat="44.22053" lon="1.98075">
        <ele>337</ele>
        <time>2019-05-11T14:20:01Z</time>
      </trkpt>
      <trkpt lat="44.22058" lon="1.98087">
        <ele>337.5</ele>
        <time>2019-05-11T14:20:13Z</time>
      </trkpt>
      <trkpt lat="44.22054" lon="1.98095">
        <ele>337.8</ele>
        <time>2019-05-11T14:20:15Z</time>
      </trkpt>
      <trkpt lat="44.22051" lon="1.98103">
        <ele>338.2</ele>
        <time>2019-05-11T14:20:18Z</time>
      </trkpt>
      <trkpt lat="44.22059" lon="1.98107">
        <ele>340.9</ele>
        <time>2019-05-11T14:20:25Z</time>
      </trkpt>
      <trkpt lat="44.22055" lon="1.98103">
        <ele>343.1</ele>
        <time>2019-05-11T14:20:33Z</time>
      </trkpt>
      <trkpt lat="44.22051" lon="1.981">
        <ele>345.3</ele>
        <time>2019-05-11T14:20:43Z</time>
      </trkpt>
      <trkpt lat="44.22049" lon="1.98108">
        <ele>345.1</ele>
        <time>2019-05-11T14:26:47Z</time>
      </trkpt>
      <trkpt lat="44.22052" lon="1.98113">
        <ele>346</ele>
        <time>2019-05-11T14:26:50Z</time>
      </trkpt>
      <trkpt lat="44.22053" lon="1.98121">
        <ele>346.9</ele>
        <time>2019-05-11T14:26:53Z</time>
      </trkpt>
      <trkpt lat="44.22051" lon="1.98128">
        <ele>347</ele>
        <time>2019-05-11T14:26:56Z</time>
      </trkpt>
      <trkpt lat="44.22049" lon="1.98135">
        <ele>347.1</ele>
        <time>2019-05-11T14:26:59Z</time>
      </trkpt>
      <trkpt lat="44.22047" lon="1.98142">
        <ele>346.6</ele>
        <time>2019-05-11T14:27:02Z</time>
      </trkpt>
      <trkpt lat="44.22046" lon="1.9815">
        <ele>346.5</ele>
        <time>2019-05-11T14:27:09Z</time>
      </trkpt>
      <trkpt lat="44.22044" lon="1.98157">
        <ele>346</ele>
        <time>2019-05-11T14:27:12Z</time>
      </trkpt>
      <trkpt lat="44.2205" lon="1.98154">
        <ele>344.5</ele>
        <time>2019-05-11T14:27:18Z</time>
      </trkpt>
      <trkpt lat="44.22053" lon="1.9815">
        <ele>344.2</ele>
        <time>2019-05-11T14:27:22Z</time>
      </trkpt>
      <trkpt lat="44.22058" lon="1.98146">
        <ele>345</ele>
        <time>2019-05-11T14:27:28Z</time>
      </trkpt>
      <trkpt lat="44.22056" lon="1.98151">
        <ele>345.9</ele>
        <time>2019-05-11T14:28:26Z</time>
      </trkpt>
      <trkpt lat="44.22052" lon="1.98158">
        <ele>345.5</ele>
        <time>2019-05-11T14:28:28Z</time>
      </trkpt>
      <trkpt lat="44.22047" lon="1.98163">
        <ele>345.4</ele>
        <time>2019-05-11T14:28:30Z</time>
      </trkpt>
      <trkpt lat="44.22046" lon="1.9817">
        <ele>344.4</ele>
        <time>2019-05-11T14:28:34Z</time>
      </trkpt>
      <trkpt lat="44.22049" lon="1.98176">
        <ele>342.9</ele>
        <time>2019-05-11T14:28:40Z</time>
      </trkpt>
      <trkpt lat="44.22046" lon="1.98181">
        <ele>342.5</ele>
        <time>2019-05-11T14:28:42Z</time>
      </trkpt>
      <trkpt lat="44.22051" lon="1.9818">
        <ele>342.8</ele>
        <time>2019-05-11T14:28:46Z</time>
      </trkpt>
      <trkpt lat="44.22054" lon="1.98187">
        <ele>346.7</ele>
        <time>2019-05-11T14:28:53Z</time>
      </trkpt>
      <trkpt lat="44.22056" lon="1.98193">
        <ele>347.3</ele>
        <time>2019-05-11T14:29:17Z</time>
      </trkpt>
      <trkpt lat="44.22069" lon="1.98208">
        <ele>344</ele>
        <time>2019-05-11T14:31:22Z</time>
      </trkpt>
      <trkpt lat="44.2207" lon="1.98221">
        <ele>347.2</ele>
        <time>2019-05-11T14:40:25Z</time>
      </trkpt>
      <trkpt lat="44.2205" lon="1.98279">
        <ele>349</ele>
        <time>2019-05-11T14:40:39Z</time>
      </trkpt>
      <trkpt lat="44.22075" lon="1.98322">
        <ele>352.4</ele>
        <time>2019-05-11T14:41:22Z</time>
      </trkpt>
      <trkpt lat="44.22078" lon="1.9834">
        <ele>350.3</ele>
        <time>2019-05-11T14:42:21Z</time>
      </trkpt>
      <trkpt lat="44.22076" lon="1.98349">
        <ele>351.1</ele>
        <time>2019-05-11T14:42:24Z</time>
      </trkpt>
      <trkpt lat="44.22077" lon="1.98358">
        <ele>350.2</ele>
        <time>2019-05-11T14:42:27Z</time>
      </trkpt>
      <trkpt lat="44.22081" lon="1.98365">
        <ele>350.3</ele>
        <time>2019-05-11T14:42:29Z</time>
      </trkpt>
      <trkpt lat="44.22082" lon="1.98373">
        <ele>350.4</ele>
        <time>2019-05-11T14:42:32Z</time>
      </trkpt>
      <trkpt lat="44.2208" lon="1.98378">
        <ele>349.5</ele>
        <time>2019-05-11T14:42:36Z</time>
      </trkpt>
      <trkpt lat="44.22076" lon="1.98386">
        <ele>346.9</ele>
        <time>2019-05-11T14:42:47Z</time>
      </trkpt>
      <trkpt lat="44.22072" lon="1.98389">
        <ele>348.1</ele>
        <time>2019-05-11T14:42:51Z</time>
      </trkpt>
      <trkpt lat="44.22067" lon="1.98392">
        <ele>349.2</ele>
        <time>2019-05-11T14:42:56Z</time>
      </trkpt>
      <trkpt lat="44.22065" lon="1.98399">
        <ele>350.1</ele>
        <time>2019-05-11T14:43:00Z</time>
      </trkpt>
      <trkpt lat="44.22068" lon="1.98406">
        <ele>351.6</ele>
        <time>2019-05-11T14:43:05Z</time>
      </trkpt>
      <trkpt lat="44.22066" lon="1.98411">
        <ele>352.7</ele>
        <time>2019-05-11T14:43:10Z</time>
      </trkpt>
      <trkpt lat="44.22063" lon="1.98417">
        <ele>352.3</ele>
        <time>2019-05-11T14:43:14Z</time>
      </trkpt>
      <trkpt lat="44.22052" lon="1.98449">
        <ele>352.8</ele>
        <time>2019-05-11T14:43:39Z</time>
      </trkpt>
      <trkpt lat="44.22053" lon="1.98456">
        <ele>352.5</ele>
        <time>2019-05-11T14:43:44Z</time>
      </trkpt>
      <trkpt lat="44.22056" lon="1.98462">
        <ele>352.8</ele>
        <time>2019-05-11T14:43:48Z</time>
      </trkpt>
      <trkpt lat="44.22056" lon="1.98469">
        <ele>352.7</ele>
        <time>2019-05-11T14:43:52Z</time>
      </trkpt>
      <trkpt lat="44.22057" lon="1.98475">
        <ele>352</ele>
        <time>2019-05-11T14:43:57Z</time>
      </trkpt>
      <trkpt lat="44.22056" lon="1.98482">
        <ele>351</ele>
        <time>2019-05-11T14:44:01Z</time>
      </trkpt>
      <trkpt lat="44.22055" lon="1.9849">
        <ele>349.5</ele>
        <time>2019-05-11T14:44:05Z</time>
      </trkpt>
      <trkpt lat="44.22052" lon="1.98495">
        <ele>348.2</ele>
        <time>2019-05-11T14:44:11Z</time>
      </trkpt>
      <trkpt lat="44.22049" lon="1.985">
        <ele>346.6</ele>
        <time>2019-05-11T14:44:16Z</time>
      </trkpt>
      <trkpt lat="44.22047" lon="1.98507">
        <ele>344.1</ele>
        <time>2019-05-11T14:44:22Z</time>
      </trkpt>
      <trkpt lat="44.22045" lon="1.98512">
        <ele>341.9</ele>
        <time>2019-05-11T14:44:32Z</time>
      </trkpt>
      <trkpt lat="44.2204" lon="1.98515">
        <ele>341.7</ele>
        <time>2019-05-11T14:44:35Z</time>
      </trkpt>
      <trkpt lat="44.22035" lon="1.98522">
        <ele>342</ele>
        <time>2019-05-11T14:44:39Z</time>
      </trkpt>
      <trkpt lat="44.22032" lon="1.98527">
        <ele>341</ele>
        <time>2019-05-11T14:44:44Z</time>
      </trkpt>
      <trkpt lat="44.22015" lon="1.9853">
        <ele>338.9</ele>
        <time>2019-05-11T14:45:12Z</time>
      </trkpt>
      <trkpt lat="44.22001" lon="1.98535">
        <ele>338</ele>
        <time>2019-05-11T14:45:23Z</time>
      </trkpt>
      <trkpt lat="44.21996" lon="1.98536">
        <ele>337.2</ele>
        <time>2019-05-11T14:45:27Z</time>
      </trkpt>
      <trkpt lat="44.21992" lon="1.98538">
        <ele>337.4</ele>
        <time>2019-05-11T14:45:34Z</time>
      </trkpt>
      <trkpt lat="44.21988" lon="1.98538">
        <ele>336.9</ele>
        <time>2019-05-11T14:45:41Z</time>
      </trkpt>
      <trkpt lat="44.21982" lon="1.98538">
        <ele>335.8</ele>
        <time>2019-05-11T14:45:45Z</time>
      </trkpt>
      <trkpt lat="44.21978" lon="1.98542">
        <ele>334.9</ele>
        <time>2019-05-11T14:45:49Z</time>
      </trkpt>
      <trkpt lat="44.21973" lon="1.98545">
        <ele>335.3</ele>
        <time>2019-05-11T14:45:54Z</time>
      </trkpt>
      <trkpt lat="44.21967" lon="1.98546">
        <ele>335.7</ele>
        <time>2019-05-11T14:45:57Z</time>
      </trkpt>
      <trkpt lat="44.21962" lon="1.98548">
        <ele>335.6</ele>
        <time>2019-05-11T14:46:00Z</time>
      </trkpt>
      <trkpt lat="44.21959" lon="1.98553">
        <ele>337.6</ele>
        <time>2019-05-11T14:46:05Z</time>
      </trkpt>
      <trkpt lat="44.21958" lon="1.9856">
        <ele>340.6</ele>
        <time>2019-05-11T14:46:13Z</time>
      </trkpt>
      <trkpt lat="44.21956" lon="1.98566">
        <ele>340.5</ele>
        <time>2019-05-11T14:46:17Z</time>
      </trkpt>
      <trkpt lat="44.21955" lon="1.98573">
        <ele>338.9</ele>
        <time>2019-05-11T14:46:21Z</time>
      </trkpt>
      <trkpt lat="44.21951" lon="1.98578">
        <ele>337.9</ele>
        <time>2019-05-11T14:46:25Z</time>
      </trkpt>
      <trkpt lat="44.21948" lon="1.98584">
        <ele>335.9</ele>
        <time>2019-05-11T14:46:30Z</time>
      </trkpt>
      <trkpt lat="44.21943" lon="1.98588">
        <ele>335.7</ele>
        <time>2019-05-11T14:46:35Z</time>
      </trkpt>
      <trkpt lat="44.21938" lon="1.98593">
        <ele>335.9</ele>
        <time>2019-05-11T14:46:38Z</time>
      </trkpt>
      <trkpt lat="44.21935" lon="1.98598">
        <ele>335.9</ele>
        <time>2019-05-11T14:46:41Z</time>
      </trkpt>
      <trkpt lat="44.21932" lon="1.98604">
        <ele>334.5</ele>
        <time>2019-05-11T14:46:45Z</time>
      </trkpt>
      <trkpt lat="44.21929" lon="1.98609">
        <ele>333.5</ele>
        <time>2019-05-11T14:46:53Z</time>
      </trkpt>
      <trkpt lat="44.21925" lon="1.98615">
        <ele>331.4</ele>
        <time>2019-05-11T14:47:00Z</time>
      </trkpt>
      <trkpt lat="44.21921" lon="1.98619">
        <ele>331</ele>
        <time>2019-05-11T14:47:03Z</time>
      </trkpt>
      <trkpt lat="44.21918" lon="1.98623">
        <ele>331.7</ele>
        <time>2019-05-11T14:47:07Z</time>
      </trkpt>
      <trkpt lat="44.21913" lon="1.98625">
        <ele>332.9</ele>
        <time>2019-05-11T14:47:11Z</time>
      </trkpt>
      <trkpt lat="44.21909" lon="1.98631">
        <ele>333.7</ele>
        <time>2019-05-11T14:47:16Z</time>
      </trkpt>
      <trkpt lat="44.21906" lon="1.98636">
        <ele>332.2</ele>
        <time>2019-05-11T14:47:21Z</time>
      </trkpt>
      <trkpt lat="44.21903" lon="1.98642">
        <ele>330.6</ele>
        <time>2019-05-11T14:47:26Z</time>
      </trkpt>
      <trkpt lat="44.21901" lon="1.98649">
        <ele>329.6</ele>
        <time>2019-05-11T14:47:32Z</time>
      </trkpt>
      <trkpt lat="44.21896" lon="1.98651">
        <ele>330.3</ele>
        <time>2019-05-11T14:47:35Z</time>
      </trkpt>
      <trkpt lat="44.21891" lon="1.98652">
        <ele>332.1</ele>
        <time>2019-05-11T14:47:40Z</time>
      </trkpt>
      <trkpt lat="44.2189" lon="1.98659">
        <ele>332.6</ele>
        <time>2019-05-11T14:47:47Z</time>
      </trkpt>
      <trkpt lat="44.21887" lon="1.98664">
        <ele>331.7</ele>
        <time>2019-05-11T14:47:50Z</time>
      </trkpt>
      <trkpt lat="44.21881" lon="1.98668">
        <ele>331.2</ele>
        <time>2019-05-11T14:47:53Z</time>
      </trkpt>
      <trkpt lat="44.21877" lon="1.98672">
        <ele>331.5</ele>
        <time>2019-05-11T14:47:58Z</time>
      </trkpt>
      <trkpt lat="44.21875" lon="1.98678">
        <ele>332</ele>
        <time>2019-05-11T14:48:03Z</time>
      </trkpt>
      <trkpt lat="44.2187" lon="1.98679">
        <ele>332.9</ele>
        <time>2019-05-11T14:48:06Z</time>
      </trkpt>
      <trkpt lat="44.21866" lon="1.98683">
        <ele>333.3</ele>
        <time>2019-05-11T14:48:10Z</time>
      </trkpt>
      <trkpt lat="44.21861" lon="1.98686">
        <ele>334.9</ele>
        <time>2019-05-11T14:48:16Z</time>
      </trkpt>
      <trkpt lat="44.21857" lon="1.9869">
        <ele>335</ele>
        <time>2019-05-11T14:48:19Z</time>
      </trkpt>
      <trkpt lat="44.21858" lon="1.98697">
        <ele>333.3</ele>
        <time>2019-05-11T14:48:28Z</time>
      </trkpt>
      <trkpt lat="44.21856" lon="1.98704">
        <ele>331.8</ele>
        <time>2019-05-11T14:48:32Z</time>
      </trkpt>
      <trkpt lat="44.21852" lon="1.98709">
        <ele>331.3</ele>
        <time>2019-05-11T14:48:36Z</time>
      </trkpt>
      <trkpt lat="44.21848" lon="1.98713">
        <ele>332.3</ele>
        <time>2019-05-11T14:48:39Z</time>
      </trkpt>
      <trkpt lat="44.21843" lon="1.98715">
        <ele>332.9</ele>
        <time>2019-05-11T14:48:44Z</time>
      </trkpt>
      <trkpt lat="44.21839" lon="1.98717">
        <ele>333.8</ele>
        <time>2019-05-11T14:48:47Z</time>
      </trkpt>
      <trkpt lat="44.21833" lon="1.98719">
        <ele>334.9</ele>
        <time>2019-05-11T14:48:51Z</time>
      </trkpt>
      <trkpt lat="44.2183" lon="1.98726">
        <ele>334.7</ele>
        <time>2019-05-11T14:48:55Z</time>
      </trkpt>
      <trkpt lat="44.21828" lon="1.98732">
        <ele>333.2</ele>
        <time>2019-05-11T14:49:01Z</time>
      </trkpt>
      <trkpt lat="44.21823" lon="1.98737">
        <ele>333</ele>
        <time>2019-05-11T14:49:08Z</time>
      </trkpt>
      <trkpt lat="44.21819" lon="1.9874">
        <ele>332.4</ele>
        <time>2019-05-11T14:50:24Z</time>
      </trkpt>
      <trkpt lat="44.21814" lon="1.98745">
        <ele>332.9</ele>
        <time>2019-05-11T14:50:27Z</time>
      </trkpt>
      <trkpt lat="44.21809" lon="1.98748">
        <ele>333.8</ele>
        <time>2019-05-11T14:50:29Z</time>
      </trkpt>
      <trkpt lat="44.21803" lon="1.98751">
        <ele>334.4</ele>
        <time>2019-05-11T14:50:31Z</time>
      </trkpt>
      <trkpt lat="44.21798" lon="1.98756">
        <ele>334.8</ele>
        <time>2019-05-11T14:50:34Z</time>
      </trkpt>
      <trkpt lat="44.21793" lon="1.9876">
        <ele>336.2</ele>
        <time>2019-05-11T14:50:38Z</time>
      </trkpt>
      <trkpt lat="44.21788" lon="1.98764">
        <ele>337.5</ele>
        <time>2019-05-11T14:50:41Z</time>
      </trkpt>
      <trkpt lat="44.21784" lon="1.98768">
        <ele>336.7</ele>
        <time>2019-05-11T14:50:45Z</time>
      </trkpt>
      <trkpt lat="44.2178" lon="1.98774">
        <ele>337.3</ele>
        <time>2019-05-11T14:50:52Z</time>
      </trkpt>
      <trkpt lat="44.21777" lon="1.98778">
        <ele>337.9</ele>
        <time>2019-05-11T14:50:57Z</time>
      </trkpt>
      <trkpt lat="44.21773" lon="1.98782">
        <ele>338.5</ele>
        <time>2019-05-11T14:51:01Z</time>
      </trkpt>
      <trkpt lat="44.2177" lon="1.98789">
        <ele>339.5</ele>
        <time>2019-05-11T14:51:05Z</time>
      </trkpt>
      <trkpt lat="44.21768" lon="1.98795">
        <ele>339.8</ele>
        <time>2019-05-11T14:51:07Z</time>
      </trkpt>
      <trkpt lat="44.21766" lon="1.98803">
        <ele>339.6</ele>
        <time>2019-05-11T14:51:10Z</time>
      </trkpt>
      <trkpt lat="44.21763" lon="1.98808">
        <ele>338.7</ele>
        <time>2019-05-11T14:51:16Z</time>
      </trkpt>
      <trkpt lat="44.21761" lon="1.98814">
        <ele>338.7</ele>
        <time>2019-05-11T14:51:23Z</time>
      </trkpt>
      <trkpt lat="44.21759" lon="1.98819">
        <ele>339.5</ele>
        <time>2019-05-11T14:51:30Z</time>
      </trkpt>
      <trkpt lat="44.21757" lon="1.98825">
        <ele>340.8</ele>
        <time>2019-05-11T14:51:36Z</time>
      </trkpt>
      <trkpt lat="44.21754" lon="1.98831">
        <ele>341.6</ele>
        <time>2019-05-11T14:51:45Z</time>
      </trkpt>
      <trkpt lat="44.21748" lon="1.98834">
        <ele>342.4</ele>
        <time>2019-05-11T14:52:08Z</time>
      </trkpt>
      <trkpt lat="44.21742" lon="1.9884">
        <ele>342</ele>
        <time>2019-05-11T14:52:11Z</time>
      </trkpt>
      <trkpt lat="44.21739" lon="1.98844">
        <ele>342.1</ele>
        <time>2019-05-11T14:52:14Z</time>
      </trkpt>
      <trkpt lat="44.21736" lon="1.98849">
        <ele>341.5</ele>
        <time>2019-05-11T14:52:19Z</time>
      </trkpt>
      <trkpt lat="44.21732" lon="1.98854">
        <ele>340</ele>
        <time>2019-05-11T14:52:23Z</time>
      </trkpt>
      <trkpt lat="44.21727" lon="1.98857">
        <ele>338.5</ele>
        <time>2019-05-11T14:52:26Z</time>
      </trkpt>
      <trkpt lat="44.21722" lon="1.9886">
        <ele>337.6</ele>
        <time>2019-05-11T14:52:29Z</time>
      </trkpt>
      <trkpt lat="44.21717" lon="1.9886">
        <ele>338.1</ele>
        <time>2019-05-11T14:52:31Z</time>
      </trkpt>
      <trkpt lat="44.21712" lon="1.98862">
        <ele>337.8</ele>
        <time>2019-05-11T14:52:36Z</time>
      </trkpt>
      <trkpt lat="44.21707" lon="1.98866">
        <ele>338.2</ele>
        <time>2019-05-11T14:52:40Z</time>
      </trkpt>
      <trkpt lat="44.21704" lon="1.9886">
        <ele>340</ele>
        <time>2019-05-11T14:52:43Z</time>
      </trkpt>
      <trkpt lat="44.21699" lon="1.98862">
        <ele>340.7</ele>
        <time>2019-05-11T14:52:47Z</time>
      </trkpt>
      <trkpt lat="44.21694" lon="1.98863">
        <ele>343.1</ele>
        <time>2019-05-11T14:52:54Z</time>
      </trkpt>
      <trkpt lat="44.2169" lon="1.98859">
        <ele>343.3</ele>
        <time>2019-05-11T14:53:06Z</time>
      </trkpt>
      <trkpt lat="44.21687" lon="1.98855">
        <ele>345.1</ele>
        <time>2019-05-11T14:53:14Z</time>
      </trkpt>
      <trkpt lat="44.21681" lon="1.98856">
        <ele>347.1</ele>
        <time>2019-05-11T14:53:41Z</time>
      </trkpt>
      <trkpt lat="44.21676" lon="1.98854">
        <ele>347.7</ele>
        <time>2019-05-11T14:53:43Z</time>
      </trkpt>
      <trkpt lat="44.21672" lon="1.98851">
        <ele>348.7</ele>
        <time>2019-05-11T14:53:47Z</time>
      </trkpt>
      <trkpt lat="44.21668" lon="1.98847">
        <ele>348.9</ele>
        <time>2019-05-11T14:53:50Z</time>
      </trkpt>
      <trkpt lat="44.21663" lon="1.98845">
        <ele>348.1</ele>
        <time>2019-05-11T14:53:53Z</time>
      </trkpt>
      <trkpt lat="44.21658" lon="1.98843">
        <ele>346.9</ele>
        <time>2019-05-11T14:53:56Z</time>
      </trkpt>
      <trkpt lat="44.21653" lon="1.98846">
        <ele>343.8</ele>
        <time>2019-05-11T14:54:02Z</time>
      </trkpt>
      <trkpt lat="44.21643" lon="1.98846">
        <ele>338.6</ele>
        <time>2019-05-11T14:54:11Z</time>
      </trkpt>
      <trkpt lat="44.21639" lon="1.98841">
        <ele>340.1</ele>
        <time>2019-05-11T14:54:17Z</time>
      </trkpt>
      <trkpt lat="44.21634" lon="1.98837">
        <ele>341.7</ele>
        <time>2019-05-11T14:54:22Z</time>
      </trkpt>
      <trkpt lat="44.21629" lon="1.98839">
        <ele>343.3</ele>
        <time>2019-05-11T14:54:28Z</time>
      </trkpt>
      <trkpt lat="44.21624" lon="1.98835">
        <ele>347.2</ele>
        <time>2019-05-11T14:54:38Z</time>
      </trkpt>
      <trkpt lat="44.2162" lon="1.98833">
        <ele>349.7</ele>
        <time>2019-05-11T14:54:43Z</time>
      </trkpt>
      <trkpt lat="44.21615" lon="1.98831">
        <ele>351.8</ele>
        <time>2019-05-11T14:54:48Z</time>
      </trkpt>
      <trkpt lat="44.21611" lon="1.98829">
        <ele>351.1</ele>
        <time>2019-05-11T14:54:52Z</time>
      </trkpt>
      <trkpt lat="44.21603" lon="1.98833">
        <ele>352.7</ele>
        <time>2019-05-11T14:55:26Z</time>
      </trkpt>
      <trkpt lat="44.21594" lon="1.98833">
        <ele>358.6</ele>
        <time>2019-05-11T14:55:39Z</time>
      </trkpt>
      <trkpt lat="44.21589" lon="1.98834">
        <ele>366.6</ele>
        <time>2019-05-11T14:56:02Z</time>
      </trkpt>
      <trkpt lat="44.21572" lon="1.9884">
        <ele>368.3</ele>
        <time>2019-05-11T14:56:21Z</time>
      </trkpt>
      <trkpt lat="44.21567" lon="1.9884">
        <ele>368</ele>
        <time>2019-05-11T14:56:23Z</time>
      </trkpt>
      <trkpt lat="44.21562" lon="1.98842">
        <ele>371.2</ele>
        <time>2019-05-11T14:56:32Z</time>
      </trkpt>
      <trkpt lat="44.21562" lon="1.98835">
        <ele>374.9</ele>
        <time>2019-05-11T14:56:50Z</time>
      </trkpt>
      <trkpt lat="44.21561" lon="1.98829">
        <ele>375.5</ele>
        <time>2019-05-11T14:57:00Z</time>
      </trkpt>
      <trkpt lat="44.21562" lon="1.9883">
        <ele>381.2</ele>
        <time>2019-05-11T15:00:35Z</time>
      </trkpt>
      <trkpt lat="44.21556" lon="1.98825">
        <ele>382</ele>
        <time>2019-05-11T15:02:44Z</time>
      </trkpt>
      <trkpt lat="44.21551" lon="1.98825">
        <ele>381.2</ele>
        <time>2019-05-11T15:02:47Z</time>
      </trkpt>
      <trkpt lat="44.21546" lon="1.98826">
        <ele>380</ele>
        <time>2019-05-11T15:02:51Z</time>
      </trkpt>
      <trkpt lat="44.21541" lon="1.98822">
        <ele>380.3</ele>
        <time>2019-05-11T15:02:55Z</time>
      </trkpt>
      <trkpt lat="44.21535" lon="1.98819">
        <ele>381.6</ele>
        <time>2019-05-11T15:02:58Z</time>
      </trkpt>
      <trkpt lat="44.21532" lon="1.98815">
        <ele>382.5</ele>
        <time>2019-05-11T15:03:00Z</time>
      </trkpt>
      <trkpt lat="44.21527" lon="1.98814">
        <ele>383</ele>
        <time>2019-05-11T15:03:03Z</time>
      </trkpt>
      <trkpt lat="44.21525" lon="1.98808">
        <ele>379.7</ele>
        <time>2019-05-11T15:03:11Z</time>
      </trkpt>
      <trkpt lat="44.21521" lon="1.98804">
        <ele>378.8</ele>
        <time>2019-05-11T15:03:20Z</time>
      </trkpt>
      <trkpt lat="44.21516" lon="1.98801">
        <ele>379.4</ele>
        <time>2019-05-11T15:03:26Z</time>
      </trkpt>
      <trkpt lat="44.21515" lon="1.98795">
        <ele>379.8</ele>
        <time>2019-05-11T15:03:28Z</time>
      </trkpt>
      <trkpt lat="44.21508" lon="1.98794">
        <ele>381.2</ele>
        <time>2019-05-11T15:03:34Z</time>
      </trkpt>
      <trkpt lat="44.21504" lon="1.98792">
        <ele>383</ele>
        <time>2019-05-11T15:03:40Z</time>
      </trkpt>
      <trkpt lat="44.21499" lon="1.98795">
        <ele>384.8</ele>
        <time>2019-05-11T15:03:43Z</time>
      </trkpt>
      <trkpt lat="44.21495" lon="1.98799">
        <ele>386</ele>
        <time>2019-05-11T15:03:49Z</time>
      </trkpt>
      <trkpt lat="44.21491" lon="1.98801">
        <ele>387.6</ele>
        <time>2019-05-11T15:03:53Z</time>
      </trkpt>
      <trkpt lat="44.21486" lon="1.98801">
        <ele>387.9</ele>
        <time>2019-05-11T15:03:58Z</time>
      </trkpt>
      <trkpt lat="44.21482" lon="1.98802">
        <ele>388.9</ele>
        <time>2019-05-11T15:04:01Z</time>
      </trkpt>
      <trkpt lat="44.21477" lon="1.988">
        <ele>390.6</ele>
        <time>2019-05-11T15:04:06Z</time>
      </trkpt>
      <trkpt lat="44.21472" lon="1.98797">
        <ele>390.8</ele>
        <time>2019-05-11T15:04:11Z</time>
      </trkpt>
      <trkpt lat="44.21467" lon="1.98797">
        <ele>391.4</ele>
        <time>2019-05-11T15:04:16Z</time>
      </trkpt>
      <trkpt lat="44.21462" lon="1.988">
        <ele>392.3</ele>
        <time>2019-05-11T15:04:20Z</time>
      </trkpt>
      <trkpt lat="44.21457" lon="1.98804">
        <ele>392.9</ele>
        <time>2019-05-11T15:04:23Z</time>
      </trkpt>
      <trkpt lat="44.21452" lon="1.98804">
        <ele>393.8</ele>
        <time>2019-05-11T15:04:26Z</time>
      </trkpt>
      <trkpt lat="44.21447" lon="1.98805">
        <ele>394.5</ele>
        <time>2019-05-11T15:04:29Z</time>
      </trkpt>
      <trkpt lat="44.21441" lon="1.98805">
        <ele>395.3</ele>
        <time>2019-05-11T15:04:32Z</time>
      </trkpt>
      <trkpt lat="44.21436" lon="1.98801">
        <ele>396.7</ele>
        <time>2019-05-11T15:04:35Z</time>
      </trkpt>
      <trkpt lat="44.21432" lon="1.98797">
        <ele>398.1</ele>
        <time>2019-05-11T15:04:38Z</time>
      </trkpt>
      <trkpt lat="44.21429" lon="1.98803">
        <ele>399.9</ele>
        <time>2019-05-11T15:04:41Z</time>
      </trkpt>
      <trkpt lat="44.21423" lon="1.98804">
        <ele>403.8</ele>
        <time>2019-05-11T15:04:46Z</time>
      </trkpt>
      <trkpt lat="44.21419" lon="1.98808">
        <ele>405.4</ele>
        <time>2019-05-11T15:04:51Z</time>
      </trkpt>
      <trkpt lat="44.21414" lon="1.98806">
        <ele>406.6</ele>
        <time>2019-05-11T15:04:55Z</time>
      </trkpt>
      <trkpt lat="44.2141" lon="1.98811">
        <ele>407.5</ele>
        <time>2019-05-11T15:05:00Z</time>
      </trkpt>
      <trkpt lat="44.21405" lon="1.98816">
        <ele>408.3</ele>
        <time>2019-05-11T15:05:05Z</time>
      </trkpt>
      <trkpt lat="44.21401" lon="1.98813">
        <ele>408.3</ele>
        <time>2019-05-11T15:05:09Z</time>
      </trkpt>
      <trkpt lat="44.21396" lon="1.98814">
        <ele>408</ele>
        <time>2019-05-11T15:05:18Z</time>
      </trkpt>
      <trkpt lat="44.21392" lon="1.98817">
        <ele>407.4</ele>
        <time>2019-05-11T15:05:29Z</time>
      </trkpt>
      <trkpt lat="44.21386" lon="1.98817">
        <ele>406.6</ele>
        <time>2019-05-11T15:05:31Z</time>
      </trkpt>
      <trkpt lat="44.21382" lon="1.98824">
        <ele>404.9</ele>
        <time>2019-05-11T15:05:33Z</time>
      </trkpt>
      <trkpt lat="44.21379" lon="1.98827">
        <ele>404</ele>
        <time>2019-05-11T15:05:35Z</time>
      </trkpt>
      <trkpt lat="44.21372" lon="1.98824">
        <ele>403.3</ele>
        <time>2019-05-11T15:05:37Z</time>
      </trkpt>
      <trkpt lat="44.21368" lon="1.98825">
        <ele>400.8</ele>
        <time>2019-05-11T15:05:41Z</time>
      </trkpt>
      <trkpt lat="44.21362" lon="1.98823">
        <ele>399.7</ele>
        <time>2019-05-11T15:05:45Z</time>
      </trkpt>
      <trkpt lat="44.21358" lon="1.98823">
        <ele>399.7</ele>
        <time>2019-05-11T15:05:49Z</time>
      </trkpt>
      <trkpt lat="44.21352" lon="1.9882">
        <ele>398.9</ele>
        <time>2019-05-11T15:05:52Z</time>
      </trkpt>
      <trkpt lat="44.21347" lon="1.98818">
        <ele>399.4</ele>
        <time>2019-05-11T15:05:55Z</time>
      </trkpt>
      <trkpt lat="44.21342" lon="1.98822">
        <ele>400.1</ele>
        <time>2019-05-11T15:06:00Z</time>
      </trkpt>
      <trkpt lat="44.21338" lon="1.98825">
        <ele>402.5</ele>
        <time>2019-05-11T15:06:05Z</time>
      </trkpt>
      <trkpt lat="44.21335" lon="1.9883">
        <ele>403.8</ele>
        <time>2019-05-11T15:06:10Z</time>
      </trkpt>
      <trkpt lat="44.2133" lon="1.98832">
        <ele>403.9</ele>
        <time>2019-05-11T15:06:16Z</time>
      </trkpt>
      <trkpt lat="44.21325" lon="1.98837">
        <ele>404.9</ele>
        <time>2019-05-11T15:06:20Z</time>
      </trkpt>
      <trkpt lat="44.21322" lon="1.98843">
        <ele>405.7</ele>
        <time>2019-05-11T15:06:23Z</time>
      </trkpt>
      <trkpt lat="44.2132" lon="1.9885">
        <ele>406.5</ele>
        <time>2019-05-11T15:06:26Z</time>
      </trkpt>
      <trkpt lat="44.21318" lon="1.98857">
        <ele>406.9</ele>
        <time>2019-05-11T15:06:30Z</time>
      </trkpt>
      <trkpt lat="44.21317" lon="1.98864">
        <ele>407.2</ele>
        <time>2019-05-11T15:06:34Z</time>
      </trkpt>
      <trkpt lat="44.21311" lon="1.98865">
        <ele>409.1</ele>
        <time>2019-05-11T15:06:39Z</time>
      </trkpt>
      <trkpt lat="44.21306" lon="1.98867">
        <ele>409.7</ele>
        <time>2019-05-11T15:06:44Z</time>
      </trkpt>
      <trkpt lat="44.213" lon="1.98868">
        <ele>410.5</ele>
        <time>2019-05-11T15:06:47Z</time>
      </trkpt>
      <trkpt lat="44.21295" lon="1.98871">
        <ele>411.6</ele>
        <time>2019-05-11T15:06:50Z</time>
      </trkpt>
      <trkpt lat="44.2129" lon="1.98872">
        <ele>412.5</ele>
        <time>2019-05-11T15:06:54Z</time>
      </trkpt>
      <trkpt lat="44.21285" lon="1.98875">
        <ele>414.1</ele>
        <time>2019-05-11T15:06:58Z</time>
      </trkpt>
      <trkpt lat="44.2128" lon="1.98876">
        <ele>415.8</ele>
        <time>2019-05-11T15:07:02Z</time>
      </trkpt>
      <trkpt lat="44.21275" lon="1.98878">
        <ele>417.1</ele>
        <time>2019-05-11T15:07:07Z</time>
      </trkpt>
      <trkpt lat="44.2127" lon="1.98881">
        <ele>418.9</ele>
        <time>2019-05-11T15:07:13Z</time>
      </trkpt>
      <trkpt lat="44.21263" lon="1.98885">
        <ele>421.3</ele>
        <time>2019-05-11T15:07:24Z</time>
      </trkpt>
      <trkpt lat="44.21255" lon="1.98891">
        <ele>420.8</ele>
        <time>2019-05-11T15:07:26Z</time>
      </trkpt>
      <trkpt lat="44.21252" lon="1.98897">
        <ele>420.2</ele>
        <time>2019-05-11T15:07:28Z</time>
      </trkpt>
      <trkpt lat="44.21248" lon="1.98903">
        <ele>420.3</ele>
        <time>2019-05-11T15:07:30Z</time>
      </trkpt>
      <trkpt lat="44.21245" lon="1.98909">
        <ele>419.2</ele>
        <time>2019-05-11T15:07:33Z</time>
      </trkpt>
      <trkpt lat="44.21241" lon="1.98912">
        <ele>418.4</ele>
        <time>2019-05-11T15:07:36Z</time>
      </trkpt>
      <trkpt lat="44.21236" lon="1.98914">
        <ele>418.4</ele>
        <time>2019-05-11T15:07:39Z</time>
      </trkpt>
      <trkpt lat="44.21232" lon="1.98917">
        <ele>416.5</ele>
        <time>2019-05-11T15:07:45Z</time>
      </trkpt>
      <trkpt lat="44.21226" lon="1.98918">
        <ele>414.6</ele>
        <time>2019-05-11T15:07:51Z</time>
      </trkpt>
      <trkpt lat="44.2122" lon="1.98917">
        <ele>413.4</ele>
        <time>2019-05-11T15:07:55Z</time>
      </trkpt>
      <trkpt lat="44.21215" lon="1.98917">
        <ele>412.8</ele>
        <time>2019-05-11T15:07:57Z</time>
      </trkpt>
      <trkpt lat="44.21208" lon="1.98915">
        <ele>412.2</ele>
        <time>2019-05-11T15:08:02Z</time>
      </trkpt>
      <trkpt lat="44.21194" lon="1.98912">
        <ele>413.6</ele>
        <time>2019-05-11T15:08:13Z</time>
      </trkpt>
      <trkpt lat="44.21189" lon="1.98917">
        <ele>410.1</ele>
        <time>2019-05-11T15:08:19Z</time>
      </trkpt>
      <trkpt lat="44.21184" lon="1.98916">
        <ele>410.4</ele>
        <time>2019-05-11T15:08:22Z</time>
      </trkpt>
      <trkpt lat="44.21178" lon="1.98917">
        <ele>409.6</ele>
        <time>2019-05-11T15:08:27Z</time>
      </trkpt>
      <trkpt lat="44.21173" lon="1.98917">
        <ele>409.7</ele>
        <time>2019-05-11T15:08:30Z</time>
      </trkpt>
      <trkpt lat="44.21168" lon="1.98915">
        <ele>410.7</ele>
        <time>2019-05-11T15:08:35Z</time>
      </trkpt>
      <trkpt lat="44.21162" lon="1.98916">
        <ele>412.5</ele>
        <time>2019-05-11T15:08:39Z</time>
      </trkpt>
      <trkpt lat="44.21157" lon="1.98918">
        <ele>413.8</ele>
        <time>2019-05-11T15:08:42Z</time>
      </trkpt>
    </trkseg>
  </trk>
</gpx>